Time;durP1;ratioP1;P1;durP2;ratioP2;P2;SDS_P1;SDS_P2;PMS_P1;PMS_P2;Temp;Humidity;BMP_temperature;BMP_pressure;BME280_temperature;BME280_humidity;BME280_pressure;Samples;Min_cycle;Max_cycle;Signal;HPM_P1;HPM_P2
2022/05/04 00:01:31;;;;;;;10.18;5.13;;;;;;;16.64;34.80;101144.03;5050958;28;20052;-72
2022/05/04 00:03:58;;;;;;;11.52;5.50;;;;;;;16.67;34.90;101146.34;5050456;28;20072;-72
2022/05/04 00:06:26;;;;;;;13.77;5.35;;;;;;;16.59;35.14;101144.59;5051465;28;20049;-72
2022/05/04 00:08:53;;;;;;;8.45;4.90;;;;;;;16.60;35.19;101148.97;5051258;28;20095;-72
2022/05/04 00:11:19;;;;;;;15.25;5.60;;;;;;;16.68;34.88;101145.34;5051003;28;20136;-72
2022/05/04 00:13:46;;;;;;;16.35;5.47;;;;;;;16.75;34.89;101153.53;5051725;28;20124;-72
2022/05/04 00:16:12;;;;;;;10.38;5.80;;;;;;;16.61;35.09;101152.56;5050986;28;20070;-72
2022/05/04 00:18:38;;;;;;;10.25;5.40;;;;;;;16.65;35.03;101151.16;5050143;28;20102;-72
2022/05/04 00:21:07;;;;;;;8.68;5.43;;;;;;;16.69;34.77;101144.31;5051010;28;20510;-71
2022/05/04 00:23:34;;;;;;;6.18;4.70;;;;;;;16.73;34.96;101152.91;5051746;28;20048;-71
2022/05/04 00:26:00;;;;;;;12.98;6.03;;;;;;;16.55;35.43;101148.72;5051546;28;20499;-71
2022/05/04 00:28:27;;;;;;;6.60;4.95;;;;;;;16.45;35.35;101144.59;5050630;28;20131;-71
2022/05/04 00:30:53;;;;;;;11.65;5.97;;;;;;;16.50;35.24;101151.16;5050121;28;20544;-71
2022/05/04 00:33:20;;;;;;;13.65;5.78;;;;;;;16.50;35.53;101139.44;5051164;28;20053;-71
2022/05/04 00:35:47;;;;;;;10.60;5.95;;;;;;;16.51;35.29;101144.72;5050364;28;20132;-71
2022/05/04 00:38:13;;;;;;;14.45;5.95;;;;;;;16.49;35.58;101141.31;5051872;28;20047;-71
2022/05/04 00:40:40;;;;;;;10.15;6.22;;;;;;;16.43;35.71;101142.06;5055566;28;20055;-71
2022/05/04 00:43:20;;;;;;;11.20;6.05;;;;;;;16.39;35.77;101143.47;5050930;28;20123;-71
2022/05/04 00:45:47;;;;;;;11.75;6.60;;;;;;;16.45;35.70;101144.59;5050627;28;20045;-71
2022/05/04 00:48:13;;;;;;;11.55;5.60;;;;;;;16.41;35.72;101144.13;5050724;28;20045;-71
2022/05/04 00:50:41;;;;;;;10.13;5.82;;;;;;;16.37;35.97;101148.25;5050613;28;20562;-71
2022/05/04 00:53:07;;;;;;;9.07;5.97;;;;;;;16.33;36.05;101152.34;5051045;28;20118;-71
2022/05/04 00:55:34;;;;;;;10.48;6.53;;;;;;;16.39;35.94;101149.72;5050055;28;20052;-71
2022/05/04 01:00:48;;;;;;;8.50;5.70;;;;;;;16.28;35.85;101152.91;5050306;28;20045;-71
2022/05/04 01:03:15;;;;;;;11.27;5.80;;;;;;;16.21;36.17;101143.03;5050575;28;20041;-71
2022/05/04 01:09:29;;;;;;;11.57;6.00;;;;;;;16.26;36.13;101146.00;5050202;28;20071;-71
2022/05/04 01:11:55;;;;;;;11.02;6.07;;;;;;;16.27;36.27;101150.41;5050164;28;20061;-71
2022/05/04 01:14:21;;;;;;;12.15;5.60;;;;;;;16.09;36.46;101154.34;5050531;28;20073;-71
2022/05/04 01:16:48;;;;;;;11.30;6.13;;;;;;;15.98;36.83;101152.06;5049181;28;20072;-71
2022/05/04 01:19:15;;;;;;;15.07;5.82;;;;;;;16.01;36.68;101151.69;5050128;28;20076;-71
2022/05/04 01:21:42;;;;;;;8.05;5.20;;;;;;;16.18;36.37;101152.34;5044145;28;20045;-71
2022/05/04 01:24:09;;;;;;;8.93;5.63;;;;;;;16.18;36.42;101153.19;5050455;28;20131;-71
2022/05/04 01:26:36;;;;;;;8.70;5.45;;;;;;;16.00;36.58;101163.56;5050477;28;20175;-71
2022/05/04 01:29:03;;;;;;;8.75;6.00;;;;;;;16.07;36.49;101158.25;5050520;28;20064;-71
2022/05/04 01:31:30;;;;;;;10.32;5.95;;;;;;;16.05;36.70;101147.59;5052965;28;20485;-71
2022/05/04 01:33:56;;;;;;;12.73;6.07;;;;;;;15.77;37.25;101154.66;5054585;28;20044;-71
2022/05/04 01:36:23;;;;;;;11.00;6.68;;;;;;;15.74;37.26;101149.59;5052893;28;20080;-71
2022/05/04 01:38:49;;;;;;;11.07;5.80;;;;;;;15.88;37.32;101149.66;5053244;28;20051;-71
2022/05/04 01:44:01;;;;;;;9.73;6.18;;;;;;;15.82;37.28;101149.53;5053174;28;20503;-71
2022/05/04 01:46:27;;;;;;;15.27;6.65;;;;;;;15.68;37.18;101151.19;5054140;28;20048;-71
2022/05/04 01:48:54;;;;;;;12.57;6.38;;;;;;;15.63;37.21;101151.72;5055113;28;20052;-71
2022/05/04 01:51:20;;;;;;;9.43;6.32;;;;;;;15.71;37.29;101146.25;5054250;28;20080;-71
2022/05/04 01:53:47;;;;;;;9.38;5.80;;;;;;;15.60;37.41;101156.63;5053484;28;20404;-71
2022/05/04 01:56:13;;;;;;;9.68;5.55;;;;;;;15.57;37.48;101144.34;5053442;28;20071;-71
2022/05/04 01:58:40;;;;;;;10.70;6.03;;;;;;;15.56;37.65;101148.03;5053493;28;20049;-71
2022/05/04 02:01:06;;;;;;;8.40;6.13;;;;;;;15.65;37.31;101151.56;5054052;28;20132;-71
2022/05/04 02:03:33;;;;;;;9.73;6.63;;;;;;;15.62;37.62;101155.44;5051758;28;20413;-71
2022/05/04 02:06:00;;;;;;;14.48;6.10;;;;;;;15.66;37.65;101155.94;5053131;28;20065;-71
2022/05/04 02:08:27;;;;;;;10.88;6.50;;;;;;;15.63;37.64;101161.72;5054267;28;20177;-71
2022/05/04 02:10:53;;;;;;;11.13;6.60;;;;;;;15.55;37.73;101157.19;5053180;28;20114;-71
2022/05/04 02:13:20;;;;;;;10.23;6.32;;;;;;;15.39;38.08;101157.31;5049272;28;20056;-71
2022/05/04 02:15:52;;;;;;;11.07;6.97;;;;;;;15.45;38.02;101162.00;5053857;28;20443;-71
2022/05/04 02:18:18;;;;;;;9.85;6.20;;;;;;;15.18;38.77;101158.00;5046090;28;20152;-71
2022/05/04 02:20:45;;;;;;;9.90;6.43;;;;;;;15.41;38.01;101152.59;5064830;28;20041;-71
2022/05/04 02:23:11;;;;;;;8.45;6.25;;;;;;;15.42;38.18;101160.50;5051288;28;20041;-72
2022/05/04 02:25:37;;;;;;;10.73;6.72;;;;;;;15.46;38.35;101158.28;5049324;28;20127;-72
2022/05/04 02:28:04;;;;;;;13.13;6.78;;;;;;;15.43;38.07;101154.09;5052494;28;20557;-71
2022/05/04 02:30:30;;;;;;;10.02;6.55;;;;;;;15.33;38.45;101163.44;5051942;28;20056;-71
2022/05/04 02:32:57;;;;;;;9.60;6.38;;;;;;;15.24;38.53;101154.56;5052745;28;20124;-70
2022/05/04 02:38:08;;;;;;;8.35;5.40;;;;;;;15.35;38.29;101153.31;5052922;28;20069;-71
2022/05/04 02:40:34;;;;;;;15.90;6.60;;;;;;;15.18;38.34;101156.13;5052395;28;20055;-70
2022/05/04 02:43:03;;;;;;;10.57;6.18;;;;;;;15.27;38.28;101147.97;5053201;28;20124;-70
2022/05/04 02:45:30;;;;;;;10.10;6.50;;;;;;;15.19;38.47;101154.28;5053654;28;20045;-71
2022/05/04 02:47:57;;;;;;;8.93;5.70;;;;;;;15.19;38.62;101157.81;5053364;28;20048;-71
2022/05/04 02:50:24;;;;;;;10.13;6.25;;;;;;;15.05;38.76;101160.44;5053149;28;20045;-71
2022/05/04 02:52:50;;;;;;;11.02;6.18;;;;;;;15.18;38.58;101153.41;5052290;28;20076;-71
2022/05/04 02:55:17;;;;;;;8.45;5.70;;;;;;;15.20;38.47;101164.91;5052515;28;20556;-71
2022/05/04 02:57:43;;;;;;;13.43;6.13;;;;;;;15.12;38.64;101164.97;5049806;28;20052;-70
2022/05/04 03:00:10;;;;;;;11.40;7.20;;;;;;;15.10;38.71;101163.47;5052987;28;20075;-71
2022/05/04 03:02:36;;;;;;;9.75;6.15;;;;;;;15.20;38.26;101167.59;5052578;28;20116;-71
2022/05/04 03:05:06;;;;;;;10.63;6.57;;;;;;;15.04;38.44;101161.47;5051730;28;20161;-71
2022/05/04 03:07:32;;;;;;;11.20;5.78;;;;;;;15.08;38.72;101168.19;5051271;28;20045;-70
2022/05/04 03:09:59;;;;;;;13.27;6.13;;;;;;;14.79;39.28;101168.88;5053097;28;20061;-71
2022/05/04 03:12:26;;;;;;;12.63;6.90;;;;;;;15.04;38.66;101166.88;5052082;28;20076;-71
2022/05/04 03:14:53;;;;;;;11.52;7.05;;;;;;;15.10;38.54;101169.69;5052512;28;20047;-71
2022/05/04 03:17:20;;;;;;;12.45;5.82;;;;;;;15.06;38.51;101167.53;5051937;28;20477;-71
2022/05/04 03:19:47;;;;;;;13.10;6.45;;;;;;;15.02;38.55;101158.97;5051752;28;20047;-70
2022/05/04 03:22:15;;;;;;;9.25;6.35;;;;;;;14.68;39.30;101160.13;5052076;28;20040;-71
2022/05/04 03:24:41;;;;;;;17.10;6.10;;;;;;;15.01;38.72;101160.78;5052087;28;20163;-70
2022/05/04 03:27:08;;;;;;;12.32;6.47;;;;;;;14.94;38.89;101157.13;5052257;28;20045;-71
2022/05/04 03:29:35;;;;;;;12.20;6.70;;;;;;;14.97;38.83;101159.47;5049647;28;20072;-71
2022/05/04 03:32:03;;;;;;;10.35;7.22;;;;;;;14.94;38.52;101162.53;5052741;28;20077;-71
2022/05/04 03:34:30;;;;;;;10.75;6.45;;;;;;;14.94;38.89;101161.69;5042981;28;20045;-71
2022/05/04 03:37:00;;;;;;;12.27;6.43;;;;;;;14.98;38.81;101165.72;5052509;28;20045;-71
2022/05/04 03:39:27;;;;;;;10.63;6.80;;;;;;;15.00;38.83;101169.09;5053050;28;20076;-72
2022/05/04 03:41:54;;;;;;;10.30;6.10;;;;;;;14.97;38.85;101169.44;5053694;28;20148;-71
2022/05/04 03:44:20;;;;;;;18.20;6.65;;;;;;;15.00;38.49;101163.69;5053145;28;20053;-71
2022/05/04 03:46:49;;;;;;;14.52;7.30;;;;;;;14.75;39.51;101166.53;5049585;28;20044;-71
2022/05/04 03:49:17;;;;;;;13.45;7.13;;;;;;;14.98;38.95;101163.88;5053637;28;20405;-72
2022/05/04 03:51:44;;;;;;;9.95;6.43;;;;;;;15.00;38.91;101163.69;5053667;28;20140;-71
2022/05/04 03:54:11;;;;;;;13.18;7.13;;;;;;;14.97;39.18;101172.16;5051808;28;20073;-71
2022/05/04 03:56:38;;;;;;;9.00;6.85;;;;;;;15.05;38.97;101166.72;5050988;28;20072;-71
2022/05/04 03:59:05;;;;;;;12.93;7.13;;;;;;;15.05;39.24;101171.25;5051534;28;20397;-71
2022/05/04 04:01:32;;;;;;;12.43;6.50;;;;;;;15.04;39.14;101174.97;5051480;28;20499;-71
2022/05/04 04:03:59;;;;;;;17.10;7.47;;;;;;;15.12;38.74;101170.38;5051199;28;20477;-70
2022/05/04 04:06:26;;;;;;;13.70;7.82;;;;;;;15.28;38.71;101171.28;5050289;28;22028;-70
2022/05/04 04:08:52;;;;;;;15.63;7.57;;;;;;;15.39;38.55;101165.44;5049863;28;20513;-70
2022/05/04 04:11:19;;;;;;;12.05;7.25;;;;;;;15.35;38.61;101174.94;5051595;28;20076;-70
2022/05/04 04:13:46;;;;;;;14.88;7.78;;;;;;;15.32;38.77;101168.00;5049434;28;20049;-70
2022/05/04 04:16:13;;;;;;;12.77;8.07;;;;;;;15.21;38.86;101176.56;5050676;28;20073;-70
2022/05/04 04:18:40;;;;;;;13.98;8.45;;;;;;;15.43;38.37;101174.84;5050447;28;20569;-70
2022/05/04 04:23:51;;;;;;;18.35;8.13;;;;;;;15.54;38.37;101177.16;5049997;28;20068;-71
2022/05/04 04:26:18;;;;;;;11.55;6.82;;;;;;;15.36;38.75;101184.72;5051307;28;20065;-71
2022/05/04 04:28:44;;;;;;;11.63;7.85;;;;;;;15.42;38.51;101189.41;5050182;28;20045;-70
2022/05/04 04:31:11;;;;;;;13.50;8.50;;;;;;;15.21;38.90;101188.19;5051251;28;20072;-71
2022/05/04 04:33:38;;;;;;;18.83;8.63;;;;;;;15.62;38.16;101196.00;5050842;28;20121;-70
2022/05/04 04:36:05;;;;;;;29.25;9.93;;;;;;;15.77;37.81;101187.94;5052003;28;20113;-70
2022/05/04 04:38:32;;;;;;;21.75;9.52;;;;;;;15.69;38.12;101186.16;5051021;28;20119;-70
2022/05/04 04:40:58;;;;;;;14.35;8.50;;;;;;;15.90;37.86;101190.03;5048637;28;20068;-70
2022/05/04 04:43:25;;;;;;;14.88;7.57;;;;;;;16.02;37.43;101194.00;5051200;28;20080;-71
2022/05/04 04:45:51;;;;;;;24.58;13.60;;;;;;;15.91;37.81;101200.66;5048947;28;20140;-70
2022/05/04 04:48:18;;;;;;;18.77;8.80;;;;;;;15.91;37.68;101205.25;5049133;28;20083;-70
2022/05/04 04:50:45;;;;;;;15.73;8.52;;;;;;;15.98;37.49;101200.78;5050399;28;20171;-70
2022/05/04 04:53:12;;;;;;;14.10;7.82;;;;;;;16.01;37.66;101208.53;5050502;28;20049;-70
2022/05/04 04:55:42;;;;;;;14.80;7.93;;;;;;;16.07;37.58;101201.53;5050594;28;20041;-70
2022/05/04 04:58:09;;;;;;;13.95;8.48;;;;;;;16.16;37.36;101197.75;5051439;28;20488;-71
2022/05/04 05:00:35;;;;;;;14.82;8.88;;;;;;;16.13;37.40;101198.09;5052134;28;20064;-69
2022/05/04 05:03:02;;;;;;;14.85;8.43;;;;;;;16.10;37.57;101195.78;5051248;28;20049;-70
2022/05/04 05:05:29;;;;;;;18.60;9.07;;;;;;;16.23;37.35;101195.97;5052820;28;20057;-70
2022/05/04 05:07:56;;;;;;;19.92;9.13;;;;;;;16.32;37.16;101196.69;5054690;28;20497;-70
2022/05/04 05:10:22;;;;;;;19.20;9.48;;;;;;;16.34;37.36;101205.50;5056617;28;20140;-70
2022/05/04 05:12:50;;;;;;;18.17;9.50;;;;;;;16.42;36.83;101200.81;5055344;28;20128;-69
2022/05/04 05:18:04;;;;;;;37.08;13.90;;;;;;;16.51;36.76;101201.59;5056124;28;20135;-71
2022/05/04 05:20:44;;;;;;;19.67;10.63;;;;;;;16.69;36.35;101197.66;5028631;27;20382;-71
2022/05/04 05:23:11;;;;;;;19.05;9.85;;;;;;;16.71;36.34;101206.41;5032209;28;20128;-71
2022/05/04 05:25:37;;;;;;;19.30;9.85;;;;;;;16.74;36.42;101206.03;5033158;28;20073;-71
2022/05/04 05:28:05;;;;;;;19.08;9.48;;;;;;;16.94;35.99;101209.84;5031902;28;20132;-71
2022/05/04 05:30:31;;;;;;;26.05;9.65;;;;;;;17.02;35.73;101203.47;5031484;28;20048;-71
2022/05/04 05:32:58;;;;;;;15.98;9.45;;;;;;;17.04;35.77;101210.38;5031716;28;20080;-70
2022/05/04 05:35:24;;;;;;;17.75;9.25;;;;;;;17.01;35.66;101207.22;5031327;28;20133;-71
2022/05/04 05:37:51;;;;;;;21.45;9.15;;;;;;;16.94;35.71;101204.41;5030268;28;20088;-71
2022/05/04 05:40:17;;;;;;;26.63;11.15;;;;;;;17.03;35.71;101211.41;5031786;28;20081;-71
2022/05/04 05:42:44;;;;;;;20.05;9.70;;;;;;;16.86;36.28;101215.38;5031622;28;20044;-71
2022/05/04 05:45:14;;;;;;;20.20;9.98;;;;;;;17.08;35.56;101214.38;5054994;28;20046;-71
2022/05/04 05:47:40;;;;;;;18.17;9.82;;;;;;;17.20;35.42;101216.56;5035240;28;20132;-71
2022/05/04 05:50:07;;;;;;;14.48;9.65;;;;;;;17.39;34.91;101209.72;5034264;28;20128;-71
2022/05/04 05:52:34;;;;;;;16.08;9.20;;;;;;;17.36;34.88;101217.22;5032657;28;20073;-71
2022/05/04 05:55:01;;;;;;;20.90;9.75;;;;;;;17.36;35.01;101205.53;5033581;28;20100;-71
2022/05/04 05:57:27;;;;;;;13.57;9.02;;;;;;;17.45;34.97;101212.50;5032643;28;20053;-71
2022/05/04 06:00:00;;;;;;;21.58;8.82;;;;;;;17.46;34.79;101218.78;5032870;28;20064;-71
2022/05/04 06:02:27;;;;;;;14.38;8.82;;;;;;;17.58;34.65;101217.25;5033632;28;20191;-70
2022/05/04 06:04:54;;;;;;;20.23;9.27;;;;;;;17.58;34.61;101211.81;5032309;28;20113;-70
2022/05/04 06:07:21;;;;;;;17.15;8.70;;;;;;;17.60;34.65;101212.44;5032336;28;20045;-71
2022/05/04 06:09:47;;;;;;;16.05;8.85;;;;;;;17.46;34.61;101205.22;5032081;28;20046;-70
2022/05/04 06:12:14;;;;;;;15.50;8.77;;;;;;;17.70;34.33;101209.41;5035170;28;20049;-71
2022/05/04 06:14:41;;;;;;;13.68;9.13;;;;;;;17.61;34.42;101208.69;5034196;28;20405;-71
2022/05/04 06:17:10;;;;;;;18.90;8.40;;;;;;;17.78;34.00;101212.78;5033457;28;20122;-70
2022/05/04 06:19:37;;;;;;;27.00;15.75;;;;;;;17.82;33.86;101205.09;5031865;28;20050;-71
2022/05/04 06:22:04;;;;;;;27.30;16.58;;;;;;;17.88;33.86;101212.47;5031150;28;20061;-71
2022/05/04 06:24:30;;;;;;;20.70;9.95;;;;;;;17.94;33.47;101203.53;5031945;28;20081;-71
2022/05/04 06:26:56;;;;;;;19.88;9.27;;;;;;;17.98;33.40;101214.84;5031734;28;20152;-71
2022/05/04 06:34:06;;;;;;;14.30;8.98;;;;;;;17.60;34.51;101210.56;5033552;28;20073;-70
2022/05/04 06:34:55;;;;;;;15.02;7.78;;;;;;;18.06;33.56;101220.97;5018350;28;20384;-70
2022/05/04 06:37:21;;;;;;;14.88;8.52;;;;;;;18.11;33.60;101219.53;5020068;28;20052;-70
2022/05/04 06:39:48;;;;;;;16.80;8.00;;;;;;;18.15;33.50;101216.25;5016537;28;20168;-71
2022/05/04 06:42:18;;;;;;;18.70;8.18;;;;;;;18.11;33.65;101222.25;5019715;28;20137;-69
2022/05/04 06:44:44;;;;;;;20.25;8.52;;;;;;;18.24;33.23;101217.78;5019617;28;20061;-71
2022/05/04 06:47:11;;;;;;;11.68;8.30;;;;;;;18.28;33.08;101226.38;5016286;28;20042;-71
2022/05/04 06:49:38;;;;;;;19.52;9.07;;;;;;;18.17;33.44;101225.06;5018422;28;20061;-71
2022/05/04 06:52:05;;;;;;;17.80;8.73;;;;;;;18.27;33.03;101220.09;5015223;28;20045;-70
2022/05/04 06:54:31;;;;;;;13.70;7.90;;;;;;;18.18;33.58;101228.59;5013570;28;20057;-71
2022/05/04 06:56:58;;;;;;;18.85;8.25;;;;;;;18.18;33.37;101225.88;5031288;28;20132;-71
2022/05/04 06:59:24;;;;;;;20.30;8.20;;;;;;;18.32;33.03;101222.22;5018767;28;20495;-71
2022/05/04 07:01:51;;;;;;;20.17;8.25;;;;;;;18.22;33.37;101222.56;5017165;28;20077;-71
2022/05/04 07:04:17;;;;;;;21.20;8.73;;;;;;;18.27;33.46;101213.81;5017563;28;20502;-71
2022/05/04 07:06:44;;;;;;;16.83;8.80;;;;;;;18.50;33.25;101210.81;5018489;28;20487;-71
2022/05/04 07:09:10;;;;;;;22.30;9.00;;;;;;;18.78;32.62;101221.63;5015980;28;20096;-71
2022/05/04 07:11:37;;;;;;;33.78;9.80;;;;;;;18.67;33.05;101214.03;5017395;28;20503;-71
2022/05/04 07:14:04;;;;;;;19.15;8.27;;;;;;;18.90;32.67;101203.69;5018286;28;20046;-72
2022/05/04 07:16:30;;;;;;;13.90;8.48;;;;;;;18.94;32.44;101215.03;5016483;28;20563;-71
2022/05/04 07:19:09;;;;;;;17.75;8.02;;;;;;;18.71;32.52;101210.72;5016323;28;20045;-71
2022/05/04 07:21:36;;;;;;;16.10;7.20;;;;;;;19.01;31.83;101216.72;5016179;28;20108;-70
2022/05/04 07:24:03;;;;;;;17.00;7.93;;;;;;;19.32;31.70;101220.78;5016092;28;20080;-71
2022/05/04 07:26:29;;;;;;;19.90;7.70;;;;;;;19.90;30.75;101226.53;5015502;28;20076;-71
2022/05/04 07:28:55;;;;;;;22.50;7.88;;;;;;;20.16;30.56;101219.38;5016811;28;20069;-70
2022/05/04 07:31:22;;;;;;;13.65;7.72;;;;;;;20.11;30.62;101224.63;5015795;28;20049;-70
2022/05/04 07:33:49;;;;;;;17.02;8.27;;;;;;;20.50;30.15;101215.56;5014242;28;20402;-72
2022/05/04 07:36:15;;;;;;;18.45;7.85;;;;;;;20.63;29.58;101214.69;5015007;28;20069;-72
2022/05/04 07:38:42;;;;;;;14.60;6.68;;;;;;;21.49;28.58;101219.69;5021018;28;20092;-70
2022/05/04 07:43:53;;;;;;;13.77;7.97;;;;;;;23.08;26.54;101200.03;5014766;28;20073;-72
2022/05/04 07:46:20;;;;;;;21.00;8.07;;;;;;;23.29;26.14;101209.66;5015873;28;20073;-70
2022/05/04 07:48:46;;;;;;;15.77;7.95;;;;;;;23.62;25.46;101212.72;5012904;28;20049;-70
2022/05/04 07:51:13;;;;;;;12.80;8.00;;;;;;;23.47;25.79;101220.56;5016706;28;20121;-72
2022/05/04 07:53:39;;;;;;;17.42;8.55;;;;;;;24.25;24.60;101218.63;5016038;28;20228;-71
2022/05/04 07:56:05;;;;;;;28.55;9.50;;;;;;;23.60;25.20;101219.50;5014046;28;20049;-71
2022/05/04 07:58:32;;;;;;;14.60;8.98;;;;;;;24.62;24.29;101222.78;5013273;28;20041;-71
2022/05/04 08:06:28;;;;;;;20.67;8.90;;;;;;;25.17;22.67;101223.34;5015485;28;20129;-72
2022/05/04 08:08:55;;;;;;;22.67;8.90;;;;;;;24.64;23.36;101220.59;5014909;28;20056;-72
2022/05/04 08:11:21;;;;;;;19.70;8.52;;;;;;;25.29;22.74;101215.88;5015319;28;20107;-72
2022/05/04 08:13:48;;;;;;;16.55;8.57;;;;;;;25.08;23.11;101226.47;5014385;28;20110;-73
2022/05/04 08:16:14;;;;;;;24.35;8.55;;;;;;;24.59;23.21;101226.00;5013326;28;20057;-72
2022/05/04 08:18:41;;;;;;;20.50;8.60;;;;;;;25.80;22.04;101225.03;5014670;28;20126;-71
2022/05/04 08:21:08;;;;;;;18.33;8.15;;;;;;;25.91;21.39;101223.28;5012212;28;20046;-71
2022/05/04 08:23:34;;;;;;;23.25;7.95;;;;;;;25.51;21.86;101225.06;5021605;28;20134;-71
2022/05/04 08:26:02;;;;;;;15.73;7.65;;;;;;;25.68;21.87;101219.59;5013915;28;20080;-72
2022/05/04 08:28:29;;;;;;;18.65;8.80;;;;;;;26.40;21.07;101220.72;5014323;28;20136;-71
2022/05/04 08:30:56;;;;;;;26.58;8.00;;;;;;;26.38;21.27;101229.25;5016700;28;20125;-70
2022/05/04 08:33:23;;;;;;;15.93;8.35;;;;;;;26.29;21.23;101226.06;5012024;28;20045;-71
2022/05/04 08:35:49;;;;;;;21.60;8.85;;;;;;;26.19;21.21;101223.19;5014390;28;20070;-72
2022/05/04 08:38:16;;;;;;;16.58;7.80;;;;;;;25.89;22.01;101220.75;5014800;28;20045;-71
2022/05/04 08:40:43;;;;;;;29.08;8.23;;;;;;;25.00;22.31;101223.28;5016046;28;20478;-71
2022/05/04 08:43:09;;;;;;;16.77;8.55;;;;;;;25.05;22.51;101220.63;5017255;28;20109;-71
2022/05/04 08:45:38;;;;;;;17.48;8.52;;;;;;;25.96;21.43;101221.44;5016492;28;20129;-71
2022/05/04 08:48:05;;;;;;;19.80;8.45;;;;;;;26.38;20.88;101218.22;5015540;28;20041;-71
2022/05/04 08:50:33;;;;;;;20.40;7.70;;;;;;;26.17;21.10;101217.09;5016645;28;20038;-71
2022/05/04 08:53:02;;;;;;;18.75;7.53;;;;;;;26.42;20.59;101215.81;5014833;28;20509;-71
2022/05/04 08:55:28;;;;;;;15.40;8.02;;;;;;;26.28;20.83;101213.41;5010213;28;20546;-73
2022/05/04 08:57:55;;;;;;;23.02;7.65;;;;;;;26.55;20.38;101213.50;5014297;28;20136;-72
2022/05/04 09:00:23;;;;;;;18.20;9.35;;;;;;;26.88;19.96;101216.41;5013919;28;20102;-71
2022/05/04 09:02:49;;;;;;;15.45;7.53;;;;;;;26.66;19.91;101206.22;5013627;28;20074;-71
2022/05/04 09:05:22;;;;;;;11.75;7.30;;;;;;;27.36;19.57;101201.78;5013004;28;20108;-70
2022/05/04 09:07:54;;;;;;;12.95;6.72;;;;;;;27.11;20.08;101209.78;5013220;28;20046;-70
2022/05/04 09:10:21;;;;;;;;;;;;;;;27.03;19.72;101203.63;5015325;28;20132;-71
2022/05/04 09:12:49;;;;;;;18.58;7.20;;;;;;;26.08;20.07;101202.91;5014370;28;20007;-70
2022/05/04 09:15:30;;;;;;;12.68;7.65;;;;;;;24.79;21.79;101200.06;5015668;28;20102;-70
2022/05/04 09:18:09;;;;;;;18.17;7.97;;;;;;;24.96;21.88;101202.84;5015828;28;20117;-71
2022/05/04 09:20:58;;;;;;;16.33;7.15;;;;;;;25.21;21.64;101197.88;5013920;28;20129;-71
2022/05/04 09:23:33;;;;;;;17.60;7.53;;;;;;;24.27;22.45;101200.88;5015188;28;20069;-73
2022/05/04 09:26:01;;;;;;;11.23;6.93;;;;;;;24.91;22.07;101200.84;5013255;28;20066;-73
2022/05/04 09:28:29;;;;;;;16.83;7.03;;;;;;;24.84;22.15;101202.91;5015137;28;20554;-71
2022/05/04 09:30:58;;;;;;;16.67;7.20;;;;;;;25.62;21.67;101193.13;5015935;28;20144;-71
2022/05/04 09:33:31;;;;;;;22.05;6.40;;;;;;;26.10;20.96;101188.91;5015468;28;20099;-71
2022/05/04 09:36:00;;;;;;;11.77;6.80;;;;;;;26.01;20.58;101191.28;5013806;28;20567;-71
2022/05/04 09:46:53;;;;;;;17.98;6.20;;;;;;;24.83;21.85;101185.59;5016706;28;20070;-72
2022/05/04 09:49:27;;;;;;;12.38;6.05;;;;;;;25.19;21.64;101186.31;5016243;28;20045;-71
2022/05/04 09:51:54;;;;;;;15.77;6.65;;;;;;;25.22;21.97;101184.97;5015695;28;20073;-70
2022/05/04 09:54:22;;;;;;;12.80;6.45;;;;;;;25.20;21.71;101189.88;5015760;28;20054;-72
2022/05/04 09:56:58;;;;;;;14.38;6.30;;;;;;;24.61;22.15;101193.69;5015213;28;20133;-73
2022/05/04 09:59:29;;;;;;;10.27;6.57;;;;;;;24.02;23.00;101189.31;5017609;28;20092;-71
2022/05/04 10:01:58;;;;;;;15.25;7.10;;;;;;;24.10;22.66;101195.28;5014562;28;20088;-71
2022/05/04 10:04:26;;;;;;;15.80;6.50;;;;;;;23.92;22.96;101200.88;5010229;28;20204;-71
2022/05/04 10:07:04;;;;;;;12.65;6.20;;;;;;;24.00;23.16;101197.78;5016757;28;20049;-71
2022/05/04 10:09:32;;;;;;;14.57;5.70;;;;;;;24.11;22.88;101198.84;5018792;28;20076;-71
2022/05/04 10:11:59;;;;;;;10.13;4.93;;;;;;;23.27;23.88;101199.78;5017822;28;20391;-71
2022/05/04 10:14:28;;;;;;;8.55;4.20;;;;;;;24.01;22.86;101199.44;5017414;28;20077;-72
2022/05/04 10:17:12;;;;;;;13.90;4.18;;;;;;;23.48;23.36;101189.34;5024385;28;20045;-72
2022/05/04 10:19:54;;;;;;;11.93;4.15;;;;;;;22.69;24.38;101194.03;5018035;28;20045;-72
2022/05/04 10:22:29;;;;;;;12.32;4.32;;;;;;;23.34;23.47;101180.50;5019633;28;20042;-72
2022/05/04 10:24:58;;;;;;;7.38;4.20;;;;;;;24.31;22.13;101193.81;5018006;28;20046;-71
2022/05/04 10:27:28;;;;;;;14.60;4.50;;;;;;;23.72;22.59;101185.56;5019229;28;20038;-73
2022/05/04 10:32:51;;;;;;;11.15;4.40;;;;;;;24.55;22.42;101172.69;5019230;28;20050;-71
2022/05/04 10:35:34;;;;;;;16.50;4.07;;;;;;;24.24;22.21;101186.81;5018726;28;20066;-73
2022/05/04 10:38:00;;;;;;;9.73;3.85;;;;;;;24.53;21.82;101168.53;5019188;28;20069;-71
2022/05/04 10:40:31;;;;;;;8.52;3.97;;;;;;;23.58;22.54;101172.34;5015523;28;20060;-72
2022/05/04 10:43:16;;;;;;;5.07;3.38;;;;;;;23.55;22.72;101179.13;4996770;28;20048;-73
2022/05/04 10:45:45;;;;;;;7.97;4.15;;;;;;;23.45;22.77;101174.22;4996024;28;20049;-73
2022/05/04 10:48:17;;;;;;;6.15;3.92;;;;;;;22.61;23.70;101183.41;4997981;28;22325;-71
2022/05/04 10:50:53;;;;;;;5.78;3.95;;;;;;;23.29;23.11;101179.53;4996023;28;20046;-71
2022/05/04 10:53:23;;;;;;;8.88;4.13;;;;;;;23.16;23.26;101178.69;4996109;28;20137;-71
2022/05/04 10:56:02;;;;;;;7.00;4.05;;;;;;;22.99;23.56;101175.72;4997141;28;20065;-72
2022/05/04 10:58:32;;;;;;;4.70;4.05;;;;;;;23.31;23.44;101182.88;4997336;28;20065;-71
2022/05/04 11:01:20;;;;;;;6.00;4.30;;;;;;;23.94;22.60;101172.16;4995415;28;20057;-71
2022/05/04 11:04:05;;;;;;;5.60;4.10;;;;;;;23.07;24.15;101174.56;4993909;28;20483;-72
2022/05/04 11:06:52;;;;;;;7.80;4.15;;;;;;;23.85;22.76;101170.00;4994092;28;20038;-71
2022/05/04 11:09:21;;;;;;;5.28;3.92;;;;;;;23.17;23.25;101168.56;4995561;28;20039;-71
2022/05/04 11:11:50;;;;;;;7.18;4.10;;;;;;;25.02;21.17;101161.56;4991983;28;20130;-71
2022/05/04 11:14:18;;;;;;;4.75;3.97;;;;;;;25.55;20.87;101163.06;4995791;28;20069;-71
2022/05/04 11:16:45;;;;;;;5.05;3.40;;;;;;;26.09;20.71;101160.59;4996934;28;20046;-71
2022/05/04 11:19:13;;;;;;;10.68;4.10;;;;;;;24.38;21.96;101155.31;4997438;28;20047;-71
2022/05/04 11:21:39;;;;;;;8.85;4.05;;;;;;;24.70;21.28;101149.38;4996048;28;20081;-70
2022/05/04 11:24:08;;;;;;;6.05;3.80;;;;;;;26.30;19.80;101149.88;4996531;28;20058;-72
2022/05/04 11:26:40;;;;;;;9.93;4.10;;;;;;;26.45;19.35;101144.59;4997301;28;20042;-72
2022/05/04 11:29:15;;;;;;;8.93;4.45;;;;;;;25.61;20.10;101140.06;4999066;28;20106;-71
2022/05/04 11:31:47;;;;;;;11.23;3.80;;;;;;;25.56;20.26;101137.22;4997644;28;20073;-72
2022/05/04 11:34:17;;;;;;;;;;;;;;;23.14;22.56;101150.69;4994444;28;20073;-72
2022/05/04 11:36:45;;;;;;;4.55;3.50;;;;;;;24.28;21.01;101144.13;4994077;28;19973;-71
2022/05/04 11:39:19;;;;;;;13.07;3.80;;;;;;;24.41;21.17;101141.13;4996209;28;20046;-71
2022/05/04 11:41:49;;;;;;;4.18;3.20;;;;;;;26.29;19.34;101137.22;4996059;28;20046;-71
2022/05/04 11:44:21;;;;;;;6.68;3.13;;;;;;;26.97;18.63;101130.34;4994840;28;20052;-71
2022/05/04 11:46:49;;;;;;;8.18;3.33;;;;;;;27.62;18.11;101122.91;4994684;28;20046;-71
2022/05/04 11:49:18;;;;;;;9.77;3.47;;;;;;;26.62;19.04;101128.03;4995947;28;20057;-71
2022/05/04 11:51:45;;;;;;;6.65;3.20;;;;;;;26.62;19.39;101122.50;4994675;28;20136;-71
2022/05/04 11:54:12;;;;;;;9.38;3.20;;;;;;;25.14;20.76;101132.16;4994240;28;20125;-72
2022/05/04 11:56:38;;;;;;;8.88;3.80;;;;;;;24.74;20.89;101118.47;4994484;28;20065;-72
2022/05/04 11:59:07;;;;;;;7.38;3.17;;;;;;;24.87;20.97;101115.44;4994652;28;20129;-72
2022/05/04 12:01:35;;;;;;;10.68;4.10;;;;;;;23.77;22.22;101126.53;4994159;28;20054;-72
2022/05/04 12:04:03;;;;;;;9.98;4.22;;;;;;;24.32;21.69;101128.84;4996332;28;20050;-72